Time;durP1;ratioP1;P1;durP2;ratioP2;P2;SDS_P1;SDS_P2;PMS_P1;PMS_P2;Temp;Humidity;BMP_temperature;BMP_pressure;BME280_temperature;BME280_humidity;BME280_pressure;Samples;Min_cycle;Max_cycle;Signal;HPM_P1;HPM_P2
2023/04/01 00:01:13;;;;;;;5.35;1.42;;;9.60;95.70;;;;;;4945179;28;89120;-77
2023/04/01 00:03:39;;;;;;;5.95;0.80;;;9.60;95.60;;;;;;4948605;28;88399;-77
2023/04/01 00:12:48;;;;;;;2.33;0.35;;;9.60;95.50;;;;;;4967160;28;91861;-76
2023/04/01 00:15:15;;;;;;;2.05;0.57;;;9.60;95.50;;;;;;4969189;28;88145;-76
2023/04/01 00:17:41;;;;;;;5.13;0.50;;;9.60;95.60;;;;;;4968007;28;89329;-76
2023/04/01 00:20:08;;;;;;;4.70;0.95;;;9.60;95.60;;;;;;4967925;28;88082;-77
2023/04/01 00:22:33;;;;;;;4.30;0.75;;;9.60;95.60;;;;;;4965305;28;89188;-77
2023/04/01 00:25:00;;;;;;;5.90;0.55;;;9.60;95.60;;;;;;4965114;28;87630;-77
2023/04/01 00:27:25;;;;;;;6.95;1.80;;;9.60;95.50;;;;;;4944581;28;87548;-77
2023/04/01 00:29:51;;;;;;;3.05;0.50;;;9.60;95.40;;;;;;4963881;28;87416;-77
2023/04/01 00:39:01;;;;;;;1.95;0.57;;;9.60;95.30;;;;;;4968343;28;87672;-77
2023/04/01 00:41:27;;;;;;;4.38;0.50;;;9.60;95.40;;;;;;4965729;28;89456;-76
2023/04/01 00:44:21;;;;;;;3.78;0.57;;;9.70;95.20;;;;;;4964247;28;90298;-77
2023/04/01 00:46:46;;;;;;;5.18;0.40;;;9.60;95.30;;;;;;4967761;28;88980;-76
2023/04/01 00:49:14;;;;;;;6.47;1.13;;;9.60;95.50;;;;;;4962860;28;87704;-76
2023/04/01 01:09:00;;;;;;;6.20;0.80;;;9.70;95.20;;;;;;4945110;28;87431;-76
2023/04/01 01:11:46;;;;;;;3.90;0.68;;;9.70;95.10;;;;;;4941756;28;88866;-77
2023/04/01 01:14:36;;;;;;;4.18;1.52;;;9.70;95.20;;;;;;4970199;28;88327;-76
2023/04/01 01:17:18;;;;;;;5.50;0.55;;;9.60;95.20;;;;;;4965530;28;87530;-77
2023/04/01 01:20:18;;;;;;;4.65;0.90;;;9.60;95.10;;;;;;4966215;28;88573;-77
2023/04/01 01:22:55;;;;;;;3.67;0.68;;;9.60;95.10;;;;;;4968569;28;88381;-76
2023/04/01 01:25:57;;;;;;;3.55;0.65;;;9.60;95.30;;;;;;4976227;28;87751;-76
2023/04/01 01:31:55;;;;;;;4.18;0.70;;;9.60;95.40;;;;;;4943673;28;87687;-76
2023/04/01 01:34:39;;;;;;;8.75;0.50;;;9.60;95.30;;;;;;4957134;28;88067;-77
2023/04/01 01:37:16;;;;;;;3.17;0.45;;;9.60;95.30;;;;;;4957035;28;87632;-77
2023/04/01 01:39:44;;;;;;;1.90;0.40;;;9.60;95.40;;;;;;4957354;28;87960;-76
2023/04/01 01:48:54;;;;;;;4.72;0.40;;;9.60;95.50;;;;;;4955076;28;87652;-76
2023/04/01 01:51:21;;;;;;;1.83;0.30;;;9.60;95.70;;;;;;4957032;28;87827;-77
2023/04/01 01:53:47;;;;;;;5.97;0.45;;;9.60;95.70;;;;;;4956192;28;88703;-77
2023/04/01 01:56:13;;;;;;;3.22;0.35;;;9.50;95.90;;;;;;4964217;28;91023;-76
2023/04/01 02:05:25;;;;;;;2.58;0.40;;;9.50;96.10;;;;;;4962266;28;87146;-77
2023/04/01 02:08:12;;;;;;;4.38;0.40;;;9.50;96.20;;;;;;5001644;28;89625;-77
2023/04/01 02:10:42;;;;;;;4.15;0.50;;;9.50;96.30;;;;;;4998530;28;88586;-76
2023/04/01 02:13:31;;;;;;;4.20;0.50;;;9.50;96.40;;;;;;5010554;28;90189;-77
2023/04/01 02:16:02;;;;;;;5.60;0.68;;;9.50;96.50;;;;;;4994752;28;88526;-76
2023/04/01 02:18:29;;;;;;;3.47;0.55;;;9.50;96.50;;;;;;4989685;28;91040;-76
2023/04/01 02:20:59;;;;;;;1.15;0.45;;;9.50;96.50;;;;;;4987524;28;87301;-77
2023/04/01 02:23:25;;;;;;;1.05;0.20;;;9.50;96.40;;;;;;4985479;28;87786;-77
2023/04/01 02:25:51;;;;;;;1.42;0.30;;;9.50;96.20;;;;;;4983637;28;88554;-77
2023/04/01 02:31:42;;;;;;;1.23;0.47;;;9.50;96.40;;;;;;4985859;28;87726;-76
2023/04/01 02:34:08;;;;;;;0.95;0.50;;;9.50;96.40;;;;;;4984677;28;88114;-76
2023/04/01 02:36:35;;;;;;;2.97;0.50;;;9.50;96.40;;;;;;4984312;28;89052;-76
2023/04/01 02:39:04;;;;;;;0.77;0.63;;;9.50;96.30;;;;;;4965001;28;89193;-76
2023/04/01 02:41:29;;;;;;;2.55;0.80;;;9.50;96.40;;;;;;4948860;28;87845;-77
2023/04/01 02:43:57;;;;;;;1.80;0.60;;;9.50;96.40;;;;;;4981217;28;90473;-76
2023/04/01 02:46:22;;;;;;;2.08;0.70;;;9.50;96.50;;;;;;4952740;28;89596;-77
2023/04/01 02:48:48;;;;;;;1.33;0.60;;;9.50;96.50;;;;;;4970089;28;88269;-76
2023/04/01 02:51:14;;;;;;;4.72;0.80;;;9.50;96.60;;;;;;4949624;28;87584;-76
2023/04/01 02:57:01;;;;;;;2.05;1.00;;;9.50;96.50;;;;;;4947735;28;87353;-76
2023/04/01 02:59:27;;;;;;;3.58;1.13;;;9.60;96.20;;;;;;4948462;28;88012;-76
2023/04/01 03:01:53;;;;;;;1.77;0.95;;;9.50;96.30;;;;;;4954661;28;88561;-76
2023/04/01 03:04:18;;;;;;;2.92;0.90;;;9.60;96.40;;;;;;4964731;28;87534;-76
2023/04/01 03:06:44;;;;;;;2.63;1.00;;;9.60;96.30;;;;;;4948277;28;87534;-76
2023/04/01 03:09:10;;;;;;;3.75;1.10;;;9.50;96.10;;;;;;4968770;28;88284;-76
2023/04/01 03:16:11;;;;;;;4.32;1.50;;;9.50;96.10;;;;;;4920767;28;87775;-76
2023/04/01 03:18:37;;;;;;;5.30;1.80;;;9.50;96.20;;;;;;4968239;28;93273;-76
2023/04/01 03:21:16;;;;;;;4.30;2.10;;;9.50;96.40;;;;;;4951186;28;87437;-77
2023/04/01 03:23:42;;;;;;;4.15;2.15;;;9.50;96.20;;;;;;4948414;28;87616;-76
2023/04/01 03:26:08;;;;;;;6.18;2.30;;;9.50;96.50;;;;;;4947969;28;87919;-76
2023/04/01 03:28:33;;;;;;;7.00;2.40;;;9.50;96.50;;;;;;4969017;28;91118;-76
2023/04/01 03:30:59;;;;;;;5.13;2.67;;;9.50;96.60;;;;;;4967242;28;88761;-76
2023/04/01 03:33:25;;;;;;;5.03;2.45;;;9.40;96.50;;;;;;4967489;28;87675;-77
2023/04/01 03:35:51;;;;;;;4.28;1.95;;;9.40;96.40;;;;;;4966915;28;87647;-77
2023/04/01 03:41:40;;;;;;;3.70;1.88;;;9.40;96.10;;;;;;4950237;28;87502;-77
2023/04/01 03:44:06;;;;;;;7.03;2.03;;;9.40;96.20;;;;;;4947356;28;87820;-76
2023/04/01 03:46:31;;;;;;;4.18;1.98;;;9.40;96.30;;;;;;4977818;28;88910;-77
2023/04/01 03:48:57;;;;;;;3.97;1.90;;;9.40;96.20;;;;;;4947802;28;88637;-77
2023/04/01 03:55:03;;;;;;;2.47;1.48;;;9.40;95.90;;;;;;4947156;28;88423;-76
2023/04/01 03:57:31;;;;;;;4.05;1.45;;;9.40;96.20;;;;;;4960684;28;94774;-76
2023/04/01 03:59:57;;;;;;;4.28;1.77;;;9.40;96.10;;;;;;4964054;28;88253;-76
2023/04/01 04:02:22;;;;;;;4.10;1.60;;;9.40;95.90;;;;;;4965395;28;91375;-76
2023/04/01 04:04:48;;;;;;;4.07;1.45;;;9.40;96.00;;;;;;4959225;28;87889;-76
2023/04/01 04:20:55;;;;;;;4.40;2.10;;;9.30;96.40;;;;;;4936700;28;90918;-77
2023/04/01 04:23:21;;;;;;;5.32;2.10;;;9.30;96.30;;;;;;4947208;28;89094;-77
2023/04/01 04:26:14;;;;;;;4.13;2.00;;;9.30;96.40;;;;;;4954554;28;88357;-77
2023/04/01 04:28:40;;;;;;;6.20;2.22;;;9.30;96.40;;;;;;4914291;28;87357;-77
2023/04/01 04:31:06;;;;;;;4.72;2.15;;;9.30;96.50;;;;;;4915267;28;87592;-77
2023/04/01 04:33:32;;;;;;;4.70;2.20;;;9.30;96.60;;;;;;4915273;28;88811;-77
2023/04/01 04:35:59;;;;;;;6.55;2.30;;;9.30;96.60;;;;;;4914638;28;88208;-76
2023/04/01 04:38:26;;;;;;;6.60;2.38;;;9.30;96.70;;;;;;4902298;28;87798;-77
2023/04/01 04:40:51;;;;;;;3.22;2.42;;;9.30;96.60;;;;;;4912248;28;87020;-76
2023/04/01 04:50:00;;;;;;;8.25;2.75;;;9.30;96.60;;;;;;4924544;28;88193;-77
2023/04/01 04:52:26;;;;;;;8.40;2.83;;;9.30;96.40;;;;;;4934274;28;87200;-76
2023/04/01 04:54:51;;;;;;;8.48;2.83;;;9.30;96.10;;;;;;4934007;28;88345;-77
2023/04/01 04:57:17;;;;;;;5.68;2.95;;;9.40;96.10;;;;;;4910780;28;91634;-76
2023/04/01 05:09:48;;;;;;;11.05;3.70;;;9.40;96.00;;;;;;4946719;28;90432;-76
2023/04/01 05:12:14;;;;;;;11.00;4.18;;;9.40;96.00;;;;;;4947664;28;87482;-77
2023/04/01 05:14:39;;;;;;;13.65;4.93;;;9.40;96.10;;;;;;4944682;28;90185;-77
2023/04/01 05:17:12;;;;;;;11.77;4.35;;;9.40;96.30;;;;;;4945073;28;89557;-77
2023/04/01 05:19:38;;;;;;;9.32;4.78;;;9.30;96.30;;;;;;4951391;28;89309;-76
2023/04/01 05:22:04;;;;;;;8.65;4.22;;;9.30;96.40;;;;;;4978302;28;87891;-76
2023/04/01 05:24:30;;;;;;;12.98;5.43;;;9.30;96.50;;;;;;4946458;28;87561;-77
2023/04/01 05:26:57;;;;;;;10.35;5.35;;;9.30;96.60;;;;;;4944858;28;89794;-77
2023/04/01 05:29:23;;;;;;;13.02;4.40;;;9.30;96.50;;;;;;4944802;28;87493;-77
2023/04/01 05:45:44;;;;;;;13.00;4.47;;;9.20;96.60;;;;;;4944644;28;88572;-76
2023/04/01 05:48:09;;;;;;;9.38;3.85;;;9.30;96.70;;;;;;4964550;28;87523;-76
2023/04/01 05:50:35;;;;;;;7.30;3.47;;;9.30;96.60;;;;;;4963715;28;90395;-76
2023/04/01 05:53:00;;;;;;;6.90;3.35;;;9.30;96.70;;;;;;4963591;28;90809;-76
2023/04/01 05:55:26;;;;;;;10.95;3.60;;;9.30;96.60;;;;;;4959811;28;87666;-77
2023/04/01 05:57:52;;;;;;;8.38;3.33;;;9.30;96.70;;;;;;4944418;28;88082;-76
2023/04/01 06:00:19;;;;;;;9.13;4.50;;;9.30;96.60;;;;;;4968267;28;88462;-76
2023/04/01 06:02:46;;;;;;;7.10;3.20;;;9.30;96.80;;;;;;4970036;28;88518;-77
2023/04/01 06:26:41;;;;;;;3.88;2.20;;;9.30;97.00;;;;;;4921311;28;88024;-77
2023/04/01 06:29:49;;;;;;;2.50;1.58;;;9.30;96.90;;;;;;4931149;28;88707;-77
2023/04/01 06:32:17;;;;;;;3.85;1.70;;;9.30;96.50;;;;;;4948285;28;87354;-78
2023/04/01 06:35:08;;;;;;;3.08;1.33;;;9.30;96.60;;;;;;4952423;28;88410;-77
2023/04/01 06:41:38;;;;;;;1.67;0.98;;;9.30;96.80;;;;;;4948183;28;87305;-77
2023/04/01 06:44:19;;;;;;;2.40;1.40;;;9.30;96.60;;;;;;4947954;28;88273;-77
2023/04/01 06:46:49;;;;;;;1.85;1.30;;;9.30;96.90;;;;;;4946610;28;88952;-78
2023/04/01 06:49:49;;;;;;;3.47;1.38;;;9.30;97.00;;;;;;4947502;28;88583;-78
2023/04/01 06:59:10;;;;;;;1.98;1.10;;;9.40;97.10;;;;;;4946640;28;87824;-78
2023/04/01 07:01:44;;;;;;;5.10;1.70;;;9.40;96.80;;;;;;4949100;28;89454;-78
2023/04/01 07:04:12;;;;;;;3.60;1.88;;;9.30;96.90;;;;;;4948442;28;88276;-77
2023/04/01 07:06:53;;;;;;;3.88;2.00;;;9.40;96.70;;;;;;4955726;28;87263;-78
2023/04/01 07:09:41;;;;;;;5.72;1.95;;;9.40;96.90;;;;;;4947115;28;92107;-78
2023/04/01 07:18:58;;;;;;;3.95;2.10;;;9.40;96.70;;;;;;4949902;28;87480;-78
2023/04/01 07:21:29;;;;;;;5.65;2.00;;;9.40;96.80;;;;;;4948827;28;87743;-78
2023/04/01 07:24:01;;;;;;;4.78;2.85;;;9.40;96.70;;;;;;4947095;28;88561;-77
2023/04/01 07:26:26;;;;;;;6.05;2.20;;;9.30;96.90;;;;;;4945647;28;90567;-76
2023/04/01 07:28:53;;;;;;;8.30;2.50;;;9.40;96.70;;;;;;4968593;28;87549;-77
2023/04/01 07:31:52;;;;;;;5.70;2.42;;;9.30;96.70;;;;;;4967831;28;87609;-77
2023/04/01 07:34:27;;;;;;;3.75;2.30;;;9.40;96.90;;;;;;4886812;28;87774;-77
2023/04/01 07:47:24;;;;;;;5.15;1.17;;;9.30;96.30;;;;;;4892919;28;87895;-78
2023/04/01 07:50:26;;;;;;;3.25;1.40;;;9.30;96.40;;;;;;4878199;28;91969;-77
2023/04/01 07:53:04;;;;;;;1.52;0.77;;;9.40;96.40;;;;;;4895405;28;88197;-77
2023/04/01 07:55:45;;;;;;;1.33;0.68;;;9.40;96.30;;;;;;4894002;28;88653;-77
2023/04/01 08:05:18;;;;;;;1.80;0.68;;;9.40;96.50;;;;;;4894768;28;88195;-78
2023/04/01 08:08:02;;;;;;;0.68;0.60;;;9.40;96.50;;;;;;4895848;28;87562;-77
2023/04/01 08:10:55;;;;;;;0.65;0.47;;;9.40;95.90;;;;;;4912475;28;88375;-78
2023/04/01 08:13:46;;;;;;;2.03;0.70;;;9.40;96.20;;;;;;4966770;28;89510;-78
2023/04/01 08:16:30;;;;;;;0.73;0.68;;;9.40;96.20;;;;;;4968121;28;88103;-77
2023/04/01 08:19:36;;;;;;;1.80;0.63;;;9.40;96.10;;;;;;4997553;28;90778;-77
2023/04/01 08:22:14;;;;;;;0.90;0.60;;;9.50;96.00;;;;;;4896118;28;88380;-78
2023/04/01 08:24:45;;;;;;;1.90;1.00;;;9.50;96.10;;;;;;4913095;28;90366;-78
2023/04/01 08:27:36;;;;;;;2.42;1.30;;;9.50;96.30;;;;;;4914576;28;87716;-78
2023/04/01 08:30:45;;;;;;;1.75;1.58;;;9.50;96.20;;;;;;4915423;28;87536;-77
2023/04/01 08:33:30;;;;;;;2.95;1.08;;;9.60;96.30;;;;;;4834537;29;88934;-78
2023/04/01 08:35:59;;;;;;;1.83;1.13;;;9.60;96.40;;;;;;4834337;29;88324;-77
2023/04/01 08:38:34;;;;;;;2.90;0.90;;;9.60;96.00;;;;;;4834810;29;89793;-79
2023/04/01 08:41:16;;;;;;;0.60;0.57;;;9.60;96.20;;;;;;4834751;29;87811;-77
2023/04/01 08:44:03;;;;;;;0.75;0.70;;;9.60;95.50;;;;;;4834813;29;88581;-78
2023/04/01 08:46:55;;;;;;;3.63;0.55;;;9.60;95.60;;;;;;4835910;29;88507;-78
2023/04/01 08:49:49;;;;;;;1.63;0.50;;;9.60;95.30;;;;;;4822931;29;87148;-78
2023/04/01 08:52:15;;;;;;;;;;;9.70;95.30;;;;;;4801966;29;88155;-78
2023/04/01 08:55:05;;;;;;;0.40;0.40;;;9.70;95.30;;;;;;4804379;29;88957;-79
2023/04/01 08:57:33;;;;;;;1.75;0.60;;;9.80;95.40;;;;;;4802783;29;92938;-79
2023/04/01 09:03:23;;;;;;;1.55;0.55;;;9.90;95.70;;;;;;4828186;29;90583;-78
2023/04/01 09:06:13;;;;;;;2.15;0.80;;;9.90;95.70;;;;;;4837983;29;91144;-78
2023/04/01 09:09:19;;;;;;;2.55;0.82;;;9.90;95.70;;;;;;4838661;29;89424;-78
2023/04/01 09:15:40;;;;;;;0.65;0.60;;;9.90;96.20;;;;;;4913590;28;88120;-78
2023/04/01 09:18:23;;;;;;;0.77;0.60;;;9.90;95.80;;;;;;4914480;28;89222;-78
2023/04/01 09:21:15;;;;;;;2.67;0.80;;;9.80;95.70;;;;;;4913656;28;88604;-78
2023/04/01 09:32:12;;;;;;;2.22;0.60;;;9.90;95.60;;;;;;4939436;28;90925;-78
2023/04/01 09:34:51;;;;;;;0.60;0.60;;;9.90;95.60;;;;;;4969165;28;87803;-78
2023/04/01 09:37:59;;;;;;;1.50;0.50;;;10.00;95.30;;;;;;4992771;28;88810;-78
2023/04/01 09:40:37;;;;;;;0.50;0.50;;;10.00;95.00;;;;;;4969544;28;87222;-79
2023/04/01 09:43:22;;;;;;;0.45;0.40;;;10.10;94.80;;;;;;5000684;28;91629;-78
2023/04/01 09:46:11;;;;;;;1.75;0.60;;;10.10;94.60;;;;;;4969738;28;87246;-78
2023/04/01 09:49:07;;;;;;;1.85;0.60;;;10.20;95.40;;;;;;4967259;28;88983;-79
2023/04/01 09:51:58;;;;;;;1.15;0.52;;;10.40;95.20;;;;;;4967705;28;91688;-78
2023/04/01 09:55:02;;;;;;;0.47;0.47;;;10.60;94.20;;;;;;4970905;28;91388;-79
2023/04/01 09:57:40;;;;;;;;;;;10.60;94.50;;;;;;4899087;28;94738;-79
2023/04/01 10:00:23;;;;;;;0.63;0.50;;;10.70;94.60;;;;;;4891260;28;87701;-79
2023/04/01 10:02:57;;;;;;;0.50;0.43;;;10.70;94.40;;;;;;4896375;28;87615;-79
2023/04/01 10:05:51;;;;;;;1.95;0.60;;;10.60;94.60;;;;;;4897489;28;88415;-79
2023/04/01 10:08:35;;;;;;;;;;;10.50;94.40;;;;;;4804236;29;92384;-79
2023/04/01 10:11:22;;;;;;;0.80;0.80;;;10.50;94.70;;;;;;4805836;29;88030;-79
2023/04/01 10:14:21;;;;;;;0.80;0.80;;;10.50;94.00;;;;;;4804064;29;87843;-79
2023/04/01 10:23:45;;;;;;;1.17;1.08;;;10.60;94.30;;;;;;4803668;29;87754;-78
2023/04/01 10:26:59;;;;;;;2.78;1.30;;;10.60;94.50;;;;;;4804456;29;87872;-78
2023/04/01 10:29:38;;;;;;;2.77;1.17;;;10.60;94.20;;;;;;4764621;29;90013;-78
2023/04/01 10:32:33;;;;;;;2.75;1.17;;;10.70;94.40;;;;;;4770511;29;88588;-78
2023/04/01 10:38:44;;;;;;;1.67;0.90;;;10.80;94.10;;;;;;4812856;29;87717;-78
2023/04/01 10:41:18;;;;;;;0.60;0.60;;;10.80;94.10;;;;;;4809194;29;91563;-81
2023/04/01 10:43:58;;;;;;;1.67;0.90;;;10.80;94.10;;;;;;4817139;29;87756;-80
2023/04/01 10:47:02;;;;;;;1.40;0.90;;;10.70;93.90;;;;;;4897059;28;87204;-78
2023/04/01 10:50:06;;;;;;;0.93;0.82;;;10.70;93.80;;;;;;4890753;28;90702;-78
2023/04/01 10:52:46;;;;;;;3.33;1.00;;;10.70;94.00;;;;;;4892645;28;89284;-78
2023/04/01 10:55:24;;;;;;;1.58;1.00;;;10.70;93.90;;;;;;4878417;28;88515;-78
2023/04/01 10:58:27;;;;;;;2.20;1.40;;;10.70;93.40;;;;;;4879334;28;87571;-79
2023/04/01 11:01:29;;;;;;;1.38;1.00;;;10.70;93.10;;;;;;4878079;28;91402;-79
2023/04/01 11:04:04;;;;;;;0.95;0.90;;;10.70;93.50;;;;;;4877358;28;89670;-79
2023/04/01 11:06:48;;;;;;;1.27;1.08;;;10.80;93.20;;;;;;4932772;28;88423;-77
2023/04/01 11:10:00;;;;;;;0.70;0.70;;;10.70;93.60;;;;;;4954384;28;87519;-79
2023/04/01 11:12:48;;;;;;;0.70;0.70;;;10.70;93.50;;;;;;4971432;28;93928;-79
2023/04/01 11:16:03;;;;;;;1.02;0.95;;;10.60;93.70;;;;;;4954398;28;88694;-79
2023/04/01 11:18:47;;;;;;;2.28;1.05;;;10.70;93.70;;;;;;4911559;28;94758;-79
2023/04/01 11:21:46;;;;;;;2.28;1.52;;;10.70;93.00;;;;;;4926432;28;87221;-79
2023/04/01 11:24:49;;;;;;;2.45;1.77;;;10.70;93.30;;;;;;4927701;28;88128;-79
2023/04/01 11:30:48;;;;;;;2.35;2.15;;;10.80;93.40;;;;;;4926738;28;90440;-79
2023/04/01 11:33:34;;;;;;;2.25;2.05;;;10.90;93.20;;;;;;4924870;28;88592;-79
2023/04/01 11:36:17;;;;;;;2.97;2.17;;;11.00;93.50;;;;;;4926742;28;87514;-79
2023/04/01 11:38:52;;;;;;;3.20;2.65;;;11.00;93.20;;;;;;4925936;28;88676;-79
2023/04/01 11:41:40;;;;;;;3.88;2.65;;;11.00;92.90;;;;;;4934029;28;87730;-79
2023/04/01 11:44:27;;;;;;;2.58;2.15;;;11.00;93.40;;;;;;4935134;28;87571;-79
2023/04/01 11:47:21;;;;;;;2.55;2.35;;;11.10;92.90;;;;;;4918430;28;90909;-79
2023/04/01 11:50:08;;;;;;;5.25;3.72;;;11.10;92.80;;;;;;4935713;28;89418;-79
2023/04/01 11:52:52;;;;;;;2.58;2.00;;;11.20;93.20;;;;;;4936052;28;88508;-79
2023/04/01 11:55:42;;;;;;;2.90;1.45;;;11.20;93.10;;;;;;4943420;28;87291;-79
2023/04/01 11:58:31;;;;;;;2.63;1.48;;;11.20;91.90;;;;;;4948216;28;87099;-79
2023/04/01 12:14:14;;;;;;;1.35;0.70;;;11.50;91.20;;;;;;5185124;23;88763;-90
2023/04/01 12:40:38;;;;;;;1.02;0.50;;;11.40;93.20;;;;;;4998894;27;86209;-76
2023/04/01 12:43:58;;;;;;;0.70;0.70;;;11.40;92.00;;;;;;4926445;28;91113;-78
2023/04/01 12:46:46;;;;;;;3.00;0.90;;;11.20;92.70;;;;;;4932901;28;86710;-78
2023/04/01 12:49:18;;;;;;;1.83;0.90;;;11.20;93.10;;;;;;4893377;28;87376;-79
2023/04/01 12:52:02;;;;;;;2.83;1.15;;;11.10;92.50;;;;;;4893974;28;86808;-78
2023/04/01 12:54:49;;;;;;;1.42;1.30;;;11.10;92.50;;;;;;4894423;28;86433;-78
2023/04/01 12:57:28;;;;;;;1.85;1.23;;;11.10;92.10;;;;;;4894977;28;86784;-78
2023/04/01 13:00:36;;;;;;;1.63;1.30;;;11.10;92.00;;;;;;4893842;28;87872;-79
2023/04/01 13:03:39;;;;;;;1.70;1.20;;;11.10;92.10;;;;;;4894376;28;86946;-78
2023/04/01 13:06:16;;;;;;;1.35;0.98;;;11.10;92.00;;;;;;4893252;28;86957;-78
2023/04/01 13:08:48;;;;;;;1.67;1.08;;;11.10;92.30;;;;;;4893578;28;86898;-78
2023/04/01 13:11:20;;;;;;;0.90;0.90;;;11.00;92.40;;;;;;4886685;28;89813;-78
2023/04/01 13:14:45;;;;;;;0.98;0.95;;;10.90;92.70;;;;;;4893580;28;86964;-79
2023/04/01 13:17:38;;;;;;;2.55;1.20;;;10.90;93.30;;;;;;4856063;28;86716;-78
2023/04/01 13:20:09;;;;;;;1.85;1.20;;;10.70;93.90;;;;;;4849561;28;86026;-78
2023/04/01 13:22:56;;;;;;;1.90;1.60;;;10.70;93.70;;;;;;4889496;28;88161;-79
2023/04/01 13:25:54;;;;;;;2.40;1.75;;;10.60;93.50;;;;;;4887219;28;89843;-78
2023/04/01 13:28:40;;;;;;;3.55;1.88;;;10.60;94.20;;;;;;4904152;28;86332;-78
2023/04/01 13:31:32;;;;;;;4.18;2.30;;;10.70;93.70;;;;;;4904693;28;86475;-78
2023/04/01 13:34:19;;;;;;;3.63;2.17;;;10.80;93.20;;;;;;4902810;28;86559;-78
2023/04/01 13:37:19;;;;;;;2.92;2.33;;;10.80;93.50;;;;;;4905016;28;87390;-78
2023/04/01 13:40:21;;;;;;;4.30;2.50;;;10.80;93.40;;;;;;4902804;28;86714;-78
2023/04/01 13:59:54;;;;;;;2.47;1.98;;;11.10;92.80;;;;;;4929645;28;87027;-79
2023/04/01 14:02:44;;;;;;;2.42;1.67;;;11.20;92.50;;;;;;4929852;28;86020;-78
2023/04/01 14:05:13;;;;;;;2.17;1.48;;;11.20;92.20;;;;;;4930896;28;86418;-78
2023/04/01 14:07:59;;;;;;;1.98;0.90;;;11.10;92.30;;;;;;4930349;28;86783;-78
2023/04/01 14:10:52;;;;;;;0.80;0.70;;;11.10;92.40;;;;;;4928415;28;90786;-79
2023/04/01 14:13:58;;;;;;;1.52;0.80;;;11.00;92.60;;;;;;4931861;28;86886;-78
2023/04/01 14:16:59;;;;;;;1.65;0.80;;;11.10;93.00;;;;;;4931529;28;85981;-78
2023/04/01 14:19:44;;;;;;;1.20;0.90;;;11.00;93.40;;;;;;4898936;28;86425;-78
2023/04/01 14:22:29;;;;;;;1.20;0.95;;;11.00;93.30;;;;;;4899327;28;87555;-78
2023/04/01 14:25:12;;;;;;;1.98;1.42;;;10.80;93.10;;;;;;4883887;28;89452;-78
2023/04/01 14:28:14;;;;;;;1.52;1.38;;;10.70;94.10;;;;;;4900560;28;86464;-78
2023/04/01 14:31:23;;;;;;;2.33;1.33;;;10.70;93.70;;;;;;4900096;28;86519;-78
2023/04/01 14:34:20;;;;;;;3.28;1.67;;;10.70;93.50;;;;;;4899550;28;91402;-78
2023/04/01 14:36:57;;;;;;;1.92;1.65;;;10.70;93.50;;;;;;4899874;28;86549;-79
2023/04/01 14:39:50;;;;;;;3.00;1.80;;;10.60;93.10;;;;;;4897528;28;86324;-78
2023/04/01 14:42:24;;;;;;;2.25;1.30;;;10.60;93.70;;;;;;4854739;28;86845;-79
2023/04/01 14:45:39;;;;;;;2.30;1.40;;;10.60;93.30;;;;;;4852288;29;86241;-79
2023/04/01 14:48:50;;;;;;;2.72;1.48;;;10.60;93.50;;;;;;4852033;29;86726;-79
2023/04/01 14:51:28;;;;;;;1.73;1.10;;;10.70;94.00;;;;;;4863133;28;87103;-82
2023/04/01 14:59:33;;;;;;;1.67;0.60;;;10.60;94.00;;;;;;5813525;23;87145;-84
2023/04/01 15:02:58;;;;;;;1.33;0.50;;;10.50;94.20;;;;;;4965076;28;85029;-81
2023/04/01 15:16:38;;;;;;;0.60;0.60;;;10.50;94.50;;;;;;5729972;22;87341;-83
2023/04/01 15:19:43;;;;;;;1.90;1.05;;;10.50;94.40;;;;;;4873067;28;90150;-81
2023/04/01 16:05:57;;;;;;;3.70;2.60;;;10.80;92.20;;;;;;5528608;23;87783;-84
2023/04/01 16:09:20;;;;;;;4.00;3.28;;;10.80;92.40;;;;;;4796247;29;86509;-84
2023/04/01 16:12:43;;;;;;;4.55;3.45;;;10.90;92.70;;;;;;4780779;29;85973;-84
2023/04/01 16:15:48;;;;;;;3.40;3.10;;;10.90;92.70;;;;;;4761884;29;85548;-84
2023/04/01 16:50:52;;;;;;;5.85;3.92;;;10.60;91.70;;;;;;5128856;23;87290;-84
2023/04/01 16:54:17;;;;;;;5.05;3.83;;;10.50;92.30;;;;;;4817077;29;85708;-84
2023/04/01 16:57:38;;;;;;;4.53;3.30;;;10.50;92.60;;;;;;4816040;29;85769;-83
2023/04/01 17:01:11;;;;;;;3.97;3.20;;;10.40;92.60;;;;;;4779582;29;85173;-83
2023/04/01 17:04:56;;;;;;;3.05;2.40;;;10.30;93.00;;;;;;5047137;23;87163;-82
2023/04/01 17:07:45;;;;;;;3.00;2.35;;;10.20;93.60;;;;;;4873623;29;87146;-83
